Time;durP1;ratioP1;P1;durP2;ratioP2;P2;SDS_P1;SDS_P2;PMS_P1;PMS_P2;Temp;Humidity;BMP_temperature;BMP_pressure;BME280_temperature;BME280_humidity;BME280_pressure;Samples;Min_cycle;Max_cycle;Signal;HPM_P1;HPM_P2
2021/07/13 00:01:59;;;;;;;1844.82;999.90;;;640.70;1894.40;;;;;;5073781;28;20013;-69
2021/07/13 00:04:25;;;;;;;1796.25;999.90;;;640.70;1894.40;;;;;;5074082;28;20095;-72
2021/07/13 00:06:51;;;;;;;1801.38;999.90;;;640.70;1894.40;;;;;;5073837;28;20469;-72
2021/07/13 00:09:19;;;;;;;1911.55;999.90;;;640.60;1894.40;;;;;;5073796;28;20031;-69
2021/07/13 00:11:46;;;;;;;1942.38;999.90;;;640.50;1920.00;;;;;;5073731;28;20477;-69
2021/07/13 00:14:11;;;;;;;1801.15;999.90;;;640.50;1920.00;;;;;;5073245;28;20028;-68
2021/07/13 00:16:37;;;;;;;1792.07;999.90;;;640.30;1945.60;;;;;;5073794;28;20098;-69
2021/07/13 00:19:03;;;;;;;1844.72;999.90;;;640.20;1945.60;;;;;;5073920;28;20063;-68
2021/07/13 00:21:29;;;;;;;1772.82;998.28;;;640.10;1971.20;;;;;;5073692;28;20029;-74
2021/07/13 00:23:55;;;;;;;1692.20;965.00;;;640.20;1945.60;;;;;;5073762;28;20024;-80
2021/07/13 00:26:21;;;;;;;1558.85;858.53;;;640.00;1971.20;;;;;;5073965;28;20036;-81
2021/07/13 00:28:47;;;;;;;1691.60;956.33;;;615.30;1996.80;;;;;;5073297;28;20123;-68
2021/07/13 00:31:13;;;;;;;1999.90;999.90;;;615.10;1996.80;;;;;;5073460;28;20534;-69
2021/07/13 00:33:38;;;;;;;1999.90;999.90;;;615.00;2022.40;;;;;;5073488;28;20488;-73
2021/07/13 00:36:04;;;;;;;1999.90;999.90;;;614.90;2048.00;;;;;;5062753;28;20390;-81
2021/07/13 00:38:30;;;;;;;1999.90;999.90;;;614.80;2048.00;;;;;;5053828;28;20029;-78
2021/07/13 00:40:56;;;;;;;1999.90;999.90;;;614.90;2048.00;;;;;;5053242;28;20039;-70
2021/07/13 00:43:21;;;;;;;1999.90;999.90;;;614.80;2048.00;;;;;;5053179;28;20059;-70
2021/07/13 00:45:47;;;;;;;1999.90;999.90;;;614.80;2048.00;;;;;;5053263;28;20021;-70
2021/07/13 00:48:13;;;;;;;1999.90;999.90;;;614.90;2048.00;;;;;;5053107;28;20033;-69
2021/07/13 00:50:40;;;;;;;1999.90;999.90;;;614.80;2048.00;;;;;;5053099;28;20036;-69
2021/07/13 00:53:06;;;;;;;1999.90;999.90;;;614.80;2022.40;;;;;;5052894;28;20086;-70
2021/07/13 00:55:32;;;;;;;1999.90;999.90;;;614.80;2022.40;;;;;;5053225;28;20028;-74
2021/07/13 00:57:57;;;;;;;1999.90;999.90;;;614.90;2022.40;;;;;;5052909;28;20025;-70
2021/07/13 01:00:24;;;;;;;1999.90;999.90;;;614.90;2022.40;;;;;;5052982;28;20025;-69
2021/07/13 01:02:54;;;;;;;1999.90;999.90;;;614.90;2022.40;;;;;;5053160;28;20051;-71
2021/07/13 01:05:26;;;;;;;1999.90;999.90;;;614.90;2022.40;;;;;;5053083;28;20031;-68
2021/07/13 01:08:04;;;;;;;1219.60;577.22;;;614.90;2022.40;;;;;;5052838;28;20021;-70
2021/07/13 01:10:57;;;;;;;1999.90;999.90;;;614.80;2022.40;;;;;;5052656;28;20021;-69
2021/07/13 01:13:34;;;;;;;1999.90;999.90;;;614.90;2022.40;;;;;;5053003;28;20049;-71
2021/07/13 01:16:26;;;;;;;1999.90;999.90;;;614.80;2048.00;;;;;;5053183;28;20021;-74
2021/07/13 01:19:26;;;;;;;1999.90;999.90;;;614.80;2048.00;;;;;;5054637;28;20036;-74
2021/07/13 01:21:57;;;;;;;1999.90;999.90;;;614.80;2048.00;;;;;;5052708;28;20024;-70
2021/07/13 01:24:47;;;;;;;1183.32;568.42;;;614.80;2048.00;;;;;;5052685;28;20079;-70
2021/07/13 01:27:29;;;;;;;837.23;391.83;;;614.80;2048.00;;;;;;5052502;28;20025;-69
2021/07/13 01:29:59;;;;;;;1999.90;999.90;;;614.80;2048.00;;;;;;5052562;28;20373;-76
2021/07/13 01:32:28;;;;;;;1999.90;999.90;;;614.80;2022.40;;;;;;5052698;28;20021;-73
2021/07/13 01:35:04;;;;;;;1999.90;999.90;;;614.80;2022.40;;;;;;5052725;28;20029;-74
2021/07/13 01:37:32;;;;;;;1999.90;999.90;;;614.80;2048.00;;;;;;5053074;28;20143;-74
2021/07/13 01:39:59;;;;;;;1999.90;999.90;;;614.80;2073.60;;;;;;5052646;28;20035;-74
2021/07/13 01:42:26;;;;;;;1999.90;999.90;;;614.70;2099.20;;;;;;5052402;28;20064;-70
2021/07/13 01:44:57;;;;;;;1999.90;999.90;;;614.70;2099.20;;;;;;5052360;28;20029;-69
2021/07/13 01:47:24;;;;;;;1999.90;999.90;;;614.50;2099.20;;;;;;5052342;28;20478;-68
2021/07/13 01:49:51;;;;;;;1999.90;999.90;;;589.60;2150.40;;;;;;5052413;28;20456;-69
2021/07/13 01:52:17;;;;;;;1999.90;999.90;;;589.50;2150.40;;;;;;5052321;28;20037;-68
2021/07/13 01:54:43;;;;;;;1999.90;999.90;;;589.50;2150.40;;;;;;5052167;28;20482;-69
2021/07/13 01:57:11;;;;;;;1999.90;999.90;;;589.40;2176.00;;;;;;5052320;28;20025;-68
2021/07/13 01:59:41;;;;;;;1999.90;999.90;;;589.40;2176.00;;;;;;5052074;28;20246;-69
2021/07/13 02:02:09;;;;;;;1999.90;999.90;;;589.50;2176.00;;;;;;5052330;28;20025;-69
2021/07/13 02:04:37;;;;;;;1999.90;999.90;;;589.50;2176.00;;;;;;5052121;28;20024;-69
2021/07/13 02:07:06;;;;;;;1999.90;999.90;;;589.70;2150.40;;;;;;5052236;28;20116;-69
2021/07/13 02:09:33;;;;;;;1999.90;999.90;;;589.50;2176.00;;;;;;5052152;28;20017;-70
2021/07/13 02:12:02;;;;;;;1999.90;999.90;;;589.40;2176.00;;;;;;5052177;28;20013;-68
2021/07/13 02:14:27;;;;;;;1999.90;999.90;;;589.50;2176.00;;;;;;5052134;28;20104;-68
2021/07/13 02:16:54;;;;;;;1999.90;999.90;;;589.50;2176.00;;;;;;5052002;28;20108;-70
2021/07/13 02:19:26;;;;;;;1162.75;558.97;;;589.60;2176.00;;;;;;5052096;28;20076;-69
2021/07/13 02:21:51;;;;;;;;;;;589.40;2176.00;;;;;;5052327;28;20382;-68
2021/07/13 02:24:18;;;;;;;1567.50;775.05;;;589.20;2201.60;;;;;;5051874;28;19913;-68
2021/07/13 02:27:10;;;;;;;1999.90;999.90;;;589.20;2201.60;;;;;;5052036;28;20032;-70
2021/07/13 02:30:00;;;;;;;1999.90;999.90;;;589.10;2227.20;;;;;;5054281;28;20103;-73
2021/07/13 02:33:02;;;;;;;1999.90;999.90;;;589.10;2227.20;;;;;;5051827;28;20051;-69
2021/07/13 02:35:41;;;;;;;1999.90;999.90;;;589.00;2227.20;;;;;;5053638;28;20037;-68
2021/07/13 02:38:09;;;;;;;1572.22;775.72;;;588.80;2252.80;;;;;;5055072;28;20025;-68
2021/07/13 02:40:36;;;;;;;1999.90;999.90;;;589.00;2252.80;;;;;;5055413;28;20036;-69
2021/07/13 02:43:05;;;;;;;1999.90;999.90;;;588.90;2252.80;;;;;;5055673;28;20029;-70
2021/07/13 02:45:31;;;;;;;1999.90;999.90;;;588.80;2278.40;;;;;;5055441;28;20025;-69
2021/07/13 02:47:58;;;;;;;1999.90;999.90;;;564.10;2278.40;;;;;;5055321;28;20048;-70
2021/07/13 02:50:27;;;;;;;1999.90;999.90;;;588.80;2278.40;;;;;;5055247;28;20056;-69
2021/07/13 02:52:54;;;;;;;1999.90;999.90;;;588.80;2278.40;;;;;;5055242;28;20017;-68
2021/07/13 02:55:22;;;;;;;1999.90;999.90;;;588.80;2304.00;;;;;;5055325;28;20028;-68
2021/07/13 02:57:50;;;;;;;1999.90;999.90;;;588.80;2304.00;;;;;;5055075;28;20032;-69
2021/07/13 03:00:17;;;;;;;1999.90;999.90;;;588.80;2329.60;;;;;;5055207;28;20382;-69
2021/07/13 03:02:46;;;;;;;1999.90;999.90;;;588.80;2329.60;;;;;;5055136;28;20021;-72
2021/07/13 03:05:24;;;;;;;1999.90;999.90;;;564.10;2355.20;;;;;;5059375;28;20021;-71
2021/07/13 03:07:51;;;;;;;1999.90;999.90;;;564.10;2355.20;;;;;;5059899;28;20108;-68
2021/07/13 03:10:22;;;;;;;1999.90;999.90;;;588.80;2355.20;;;;;;5061752;28;20474;-69
2021/07/13 03:12:49;;;;;;;1999.90;999.90;;;588.80;2355.20;;;;;;5060521;28;20400;-69
2021/07/13 03:15:15;;;;;;;1999.90;999.90;;;588.90;2329.60;;;;;;5055049;28;20031;-69
2021/07/13 03:17:41;;;;;;;1999.90;999.90;;;588.80;2355.20;;;;;;5057654;28;20103;-68
2021/07/13 03:20:07;;;;;;;1999.90;999.90;;;564.10;2355.20;;;;;;5061464;28;20488;-68
2021/07/13 03:22:46;;;;;;;1999.90;999.90;;;564.10;2355.20;;;;;;5056509;28;20025;-70
2021/07/13 03:25:16;;;;;;;1999.90;999.90;;;564.10;2355.20;;;;;;5059318;28;20446;-69
2021/07/13 03:27:43;;;;;;;1999.90;999.90;;;564.00;2380.80;;;;;;5054750;28;20029;-68
2021/07/13 03:30:09;;;;;;;1999.90;999.90;;;564.00;2406.40;;;;;;5054590;28;20048;-69
2021/07/13 03:32:37;;;;;;;1999.90;999.90;;;564.00;2380.80;;;;;;5054585;28;20144;-68
2021/07/13 03:35:04;;;;;;;1999.90;999.90;;;564.00;2406.40;;;;;;5054494;28;20159;-70
2021/07/13 03:37:30;;;;;;;1999.90;999.90;;;564.10;2406.40;;;;;;5054525;28;20051;-69
2021/07/13 03:39:57;;;;;;;1999.90;999.90;;;564.10;2406.40;;;;;;5054384;28;20104;-69
2021/07/13 03:42:24;;;;;;;1999.90;999.90;;;564.10;2406.40;;;;;;5054269;28;20100;-69
2021/07/13 03:44:50;;;;;;;1999.90;999.90;;;564.00;2406.40;;;;;;5054306;28;20014;-69
2021/07/13 03:47:18;;;;;;;1999.90;999.90;;;564.00;2406.40;;;;;;5054510;28;20389;-69
2021/07/13 03:49:44;;;;;;;1999.90;999.90;;;564.10;2432.00;;;;;;5054150;28;20060;-70
2021/07/13 03:52:12;;;;;;;1999.90;999.90;;;564.10;2432.00;;;;;;5053913;28;20036;-69
2021/07/13 03:54:38;;;;;;;1999.90;999.90;;;588.80;2432.00;;;;;;5054375;28;20032;-70
2021/07/13 03:57:05;;;;;;;1999.90;999.90;;;588.80;2432.00;;;;;;5053905;28;20401;-69
2021/07/13 03:59:31;;;;;;;1999.90;999.90;;;588.80;2432.00;;;;;;5054100;28;20029;-69
2021/07/13 04:01:56;;;;;;;1999.90;999.90;;;588.80;2432.00;;;;;;5054107;28;20021;-73
2021/07/13 04:04:22;;;;;;;1999.90;999.90;;;564.10;2432.00;;;;;;5054073;28;20025;-70
2021/07/13 04:06:48;;;;;;;1999.90;999.90;;;564.10;2432.00;;;;;;5054030;28;20108;-70
2021/07/13 04:09:14;;;;;;;1999.90;999.90;;;564.10;2432.00;;;;;;5053901;28;20083;-70
2021/07/13 04:11:39;;;;;;;1999.90;999.90;;;588.80;2432.00;;;;;;5053708;28;20031;-68
2021/07/13 04:14:05;;;;;;;1999.90;999.90;;;588.90;2432.00;;;;;;5053832;28;20032;-69
2021/07/13 04:16:31;;;;;;;1999.90;999.90;;;588.90;2432.00;;;;;;5053594;28;20032;-69
2021/07/13 04:18:58;;;;;;;1999.90;999.90;;;588.90;2432.00;;;;;;5053623;28;20450;-69
2021/07/13 04:21:24;;;;;;;1999.90;999.90;;;588.90;2432.00;;;;;;5053517;28;20021;-69
2021/07/13 04:23:50;;;;;;;1999.90;999.90;;;588.90;2432.00;;;;;;5053728;28;20025;-70
2021/07/13 04:26:15;;;;;;;1999.90;999.90;;;589.00;2432.00;;;;;;5054101;28;20024;-69
2021/07/13 04:28:41;;;;;;;1999.90;999.90;;;589.00;2432.00;;;;;;5053330;28;20037;-73
2021/07/13 04:31:07;;;;;;;1999.90;999.90;;;589.10;2432.00;;;;;;5053570;28;20071;-69
2021/07/13 04:33:32;;;;;;;1999.90;999.90;;;589.20;2432.00;;;;;;5053196;28;20032;-70
2021/07/13 04:35:58;;;;;;;1999.90;999.90;;;589.30;2406.40;;;;;;5053372;28;20531;-69
2021/07/13 04:38:24;;;;;;;1999.90;999.90;;;589.40;2406.40;;;;;;5053212;28;20044;-69
2021/07/13 04:40:50;;;;;;;1999.90;999.90;;;589.50;2406.40;;;;;;5053206;28;20473;-69
2021/07/13 04:43:16;;;;;;;1999.90;999.90;;;589.50;2380.80;;;;;;5053374;28;20028;-74
2021/07/13 04:45:42;;;;;;;1999.90;999.90;;;589.70;2380.80;;;;;;5053020;28;20025;-73
2021/07/13 04:48:08;;;;;;;1999.90;999.90;;;589.70;2355.20;;;;;;5053276;28;20028;-78
2021/07/13 04:50:34;;;;;;;1999.90;999.90;;;614.40;2329.60;;;;;;5053393;28;20420;-76
2021/07/13 04:53:00;;;;;;;1999.90;999.90;;;614.50;2329.60;;;;;;5053137;28;20074;-73
2021/07/13 04:55:25;;;;;;;1999.90;999.90;;;614.60;2329.60;;;;;;5053287;28;20021;-73
2021/07/13 04:57:51;;;;;;;1999.90;999.90;;;614.70;2329.60;;;;;;5053691;28;20032;-77
2021/07/13 05:00:17;;;;;;;1999.90;999.90;;;614.70;2329.60;;;;;;5052914;28;20502;-72
2021/07/13 05:02:43;;;;;;;1999.90;999.90;;;614.80;2304.00;;;;;;5052970;28;20538;-74
2021/07/13 05:05:10;;;;;;;1999.90;999.90;;;614.80;2304.00;;;;;;5053138;28;20021;-74
2021/07/13 05:07:43;;;;;;;1999.90;999.90;;;614.80;2304.00;;;;;;5052102;28;20421;-73
2021/07/13 05:10:10;;;;;;;1999.90;999.90;;;614.90;2304.00;;;;;;5052968;28;20044;-74
2021/07/13 05:12:38;;;;;;;1999.90;999.90;;;614.90;2304.00;;;;;;5053214;28;20063;-73
2021/07/13 05:15:06;;;;;;;1999.90;999.90;;;614.90;2278.40;;;;;;5052738;28;20099;-73
2021/07/13 05:17:31;;;;;;;1999.90;999.90;;;615.00;2278.40;;;;;;5052832;28;20037;-73
2021/07/13 05:19:57;;;;;;;1999.90;999.90;;;615.10;2252.80;;;;;;5052795;28;20033;-73
2021/07/13 05:22:23;;;;;;;1999.90;999.90;;;615.20;2252.80;;;;;;5052851;28;20013;-73
2021/07/13 05:24:49;;;;;;;1999.90;999.90;;;615.20;2278.40;;;;;;5052784;28;20109;-73
2021/07/13 05:27:17;;;;;;;1999.90;999.90;;;615.30;2278.40;;;;;;5052733;28;20036;-74
2021/07/13 05:29:42;;;;;;;1999.90;999.90;;;640.00;2278.40;;;;;;5052740;28;20130;-73
2021/07/13 05:32:08;;;;;;;1999.90;999.90;;;615.30;2278.40;;;;;;5052576;28;20465;-74
2021/07/13 05:34:34;;;;;;;1999.90;999.90;;;640.00;2252.80;;;;;;5052699;28;20021;-73
2021/07/13 05:36:59;;;;;;;1999.90;999.90;;;640.00;2252.80;;;;;;5052652;28;20081;-73
2021/07/13 05:39:25;;;;;;;1999.90;999.90;;;640.00;2252.80;;;;;;5052489;28;20033;-73
2021/07/13 05:41:51;;;;;;;1999.90;999.90;;;640.10;2252.80;;;;;;5052472;28;20096;-73
2021/07/13 05:44:17;;;;;;;1999.90;999.90;;;640.10;2252.80;;;;;;5052732;28;20021;-75
2021/07/13 05:46:43;;;;;;;1999.90;999.90;;;640.20;2252.80;;;;;;5052527;28;20021;-74
2021/07/13 05:49:08;;;;;;;1999.90;999.90;;;640.20;2252.80;;;;;;5052527;28;20063;-75
2021/07/13 05:51:34;;;;;;;1999.90;999.90;;;640.30;2227.20;;;;;;5052970;28;20025;-73
2021/07/13 05:54:00;;;;;;;1999.90;999.90;;;640.20;2252.80;;;;;;5052850;28;20501;-75
2021/07/13 05:56:26;;;;;;;1999.90;999.90;;;640.40;2252.80;;;;;;5052552;28;20032;-79
2021/07/13 05:58:52;;;;;;;1999.90;999.90;;;640.40;2227.20;;;;;;5052403;28;20033;-74
2021/07/13 06:01:18;;;;;;;1999.90;999.90;;;640.60;2252.80;;;;;;5051210;28;20084;-73
2021/07/13 06:03:43;;;;;;;1999.90;999.90;;;640.60;2227.20;;;;;;5052306;28;20067;-73
2021/07/13 06:06:09;;;;;;;1999.90;999.90;;;640.70;2227.20;;;;;;5052232;28;20021;-73
2021/07/13 06:08:35;;;;;;;1999.90;999.90;;;640.70;2227.20;;;;;;5052336;28;20108;-72
2021/07/13 06:11:00;;;;;;;1999.90;999.90;;;640.90;2227.20;;;;;;5052424;28;20025;-79
2021/07/13 06:13:26;;;;;;;1999.90;999.90;;;665.60;2227.20;;;;;;5056159;28;20028;-81
2021/07/13 06:15:52;;;;;;;1999.90;999.90;;;665.60;2227.20;;;;;;5056496;28;20560;-79
2021/07/13 06:18:21;;;;;;;1999.90;999.90;;;665.70;2227.20;;;;;;5055945;28;20481;-73
2021/07/13 06:20:48;;;;;;;1999.90;999.90;;;665.90;2227.20;;;;;;5056047;28;20109;-74
2021/07/13 06:23:14;;;;;;;1999.90;999.90;;;665.90;2227.20;;;;;;5055749;28;20029;-77
2021/07/13 06:25:42;;;;;;;1999.90;999.90;;;665.90;2201.60;;;;;;5056121;28;20029;-80
2021/07/13 06:28:08;;;;;;;1999.90;999.90;;;666.00;2201.60;;;;;;5056023;28;20025;-72
2021/07/13 06:30:34;;;;;;;1999.90;999.90;;;666.20;2201.60;;;;;;5055714;28;20056;-72
2021/07/13 06:33:00;;;;;;;1999.90;999.90;;;666.30;2201.60;;;;;;5055840;28;20040;-73
2021/07/13 06:35:26;;;;;;;1999.90;999.90;;;666.40;2176.00;;;;;;5055723;28;20029;-73
2021/07/13 06:37:52;;;;;;;1999.90;999.90;;;666.40;2150.40;;;;;;5055948;28;20033;-74
2021/07/13 06:40:18;;;;;;;1999.90;999.90;;;691.20;2176.00;;;;;;5055517;28;20090;-73
2021/07/13 06:42:44;;;;;;;1999.90;999.90;;;691.20;2150.40;;;;;;5055710;28;20025;-74
2021/07/13 06:45:11;;;;;;;1999.90;999.90;;;691.30;2124.80;;;;;;5055744;28;20075;-74
2021/07/13 06:47:37;;;;;;;1999.90;999.90;;;691.40;2124.80;;;;;;5055815;28;20025;-73
2021/07/13 06:50:04;;;;;;;1999.90;999.90;;;691.50;2099.20;;;;;;5055543;28;20043;-74
2021/07/13 06:52:30;;;;;;;1999.90;999.90;;;691.60;2099.20;;;;;;5055268;28;20025;-73
2021/07/13 06:54:56;;;;;;;1999.90;999.90;;;691.60;2099.20;;;;;;5055854;28;20362;-74
2021/07/13 06:57:23;;;;;;;1999.90;999.90;;;691.70;2099.20;;;;;;5055525;28;20086;-79
2021/07/13 06:59:49;;;;;;;1999.90;999.90;;;691.80;2073.60;;;;;;5055252;28;20017;-78
2021/07/13 07:02:15;;;;;;;1999.90;999.90;;;692.00;2073.60;;;;;;5054055;28;20017;-73
2021/07/13 07:04:41;;;;;;;1999.90;999.90;;;692.10;2073.60;;;;;;5055261;28;20032;-75
2021/07/13 07:07:07;;;;;;;1999.90;999.90;;;716.80;2073.60;;;;;;5055273;28;20025;-74
2021/07/13 07:09:34;;;;;;;1999.90;999.90;;;716.90;2048.00;;;;;;5055288;28;20029;-78
2021/07/13 07:11:59;;;;;;;1999.90;999.90;;;717.10;2022.40;;;;;;5055292;28;20025;-79
2021/07/13 07:14:25;;;;;;;1999.90;999.90;;;717.10;2048.00;;;;;;5055210;28;20036;-79
2021/07/13 07:16:51;;;;;;;1999.90;999.90;;;717.20;2022.40;;;;;;5054962;28;20031;-75
2021/07/13 07:19:16;;;;;;;1999.90;999.90;;;717.30;1996.80;;;;;;5055184;28;20385;-74
2021/07/13 07:21:42;;;;;;;1999.90;999.90;;;717.40;1996.80;;;;;;5055187;28;20163;-75
2021/07/13 07:24:08;;;;;;;1999.90;999.90;;;717.50;1971.20;;;;;;5054605;28;20444;-75
2021/07/13 07:26:33;;;;;;;1999.90;999.90;;;717.50;1971.20;;;;;;5054965;28;20434;-77
2021/07/13 07:28:59;;;;;;;1999.90;999.90;;;717.60;1971.20;;;;;;5054540;28;20543;-80
2021/07/13 07:31:25;;;;;;;1999.90;999.90;;;717.70;1971.20;;;;;;5054787;28;20029;-77
2021/07/13 07:33:51;;;;;;;1999.90;999.90;;;742.50;1996.80;;;;;;5054931;28;20500;-77
2021/07/13 07:36:16;;;;;;;1999.90;999.90;;;742.50;1971.20;;;;;;5054671;28;20390;-75
2021/07/13 07:38:42;;;;;;;1999.90;999.90;;;742.60;1996.80;;;;;;5054756;28;20032;-74
2021/07/13 07:41:08;;;;;;;1999.90;999.90;;;742.70;1971.20;;;;;;5056464;28;20024;-74
2021/07/13 07:43:34;;;;;;;1999.90;999.90;;;742.80;1971.20;;;;;;5056002;28;20037;-73
2021/07/13 07:45:59;;;;;;;1999.90;999.90;;;742.90;1996.80;;;;;;5055000;28;20055;-74
2021/07/13 07:48:25;;;;;;;1999.90;999.90;;;743.00;1971.20;;;;;;5055708;28;20017;-76
2021/07/13 07:50:51;;;;;;;1999.90;999.90;;;743.10;1945.60;;;;;;5054182;28;20029;-76
2021/07/13 07:53:17;;;;;;;1999.90;999.90;;;743.10;1920.00;;;;;;5054452;28;20021;-80
2021/07/13 07:55:43;;;;;;;1999.90;999.90;;;743.20;1945.60;;;;;;5054447;28;20504;-81
2021/07/13 07:58:10;;;;;;;1999.90;999.90;;;743.30;1920.00;;;;;;5054469;28;20032;-79
2021/07/13 08:00:35;;;;;;;1999.90;999.90;;;743.30;1920.00;;;;;;5054378;28;20504;-78
2021/07/13 08:03:02;;;;;;;1999.90;999.90;;;768.10;1920.00;;;;;;5054042;28;20107;-75
2021/07/13 08:05:30;;;;;;;1999.90;999.90;;;768.10;1920.00;;;;;;5054243;28;20116;-76
2021/07/13 08:07:55;;;;;;;1999.90;999.90;;;768.30;1920.00;;;;;;5054702;28;20098;-79
2021/07/13 08:10:21;;;;;;;1999.90;999.90;;;768.40;1920.00;;;;;;5054107;28;20481;-82
2021/07/13 08:12:47;;;;;;;1999.90;999.90;;;768.40;1894.40;;;;;;5054394;28;20078;-79
2021/07/13 08:15:13;;;;;;;1999.90;999.90;;;768.50;1894.40;;;;;;5053929;28;20025;-75
2021/07/13 08:17:41;;;;;;;1999.90;999.90;;;768.60;1894.40;;;;;;5052691;28;20389;-76
2021/07/13 08:20:09;;;;;;;1999.90;999.90;;;768.60;1894.40;;;;;;5054014;28;20036;-74
2021/07/13 08:22:35;;;;;;;1999.90;999.90;;;768.80;1894.40;;;;;;5053782;28;20416;-75
2021/07/13 08:25:02;;;;;;;1999.90;999.90;;;768.90;1868.80;;;;;;5053445;28;20108;-75
2021/07/13 08:27:28;;;;;;;1999.90;999.90;;;768.90;1868.80;;;;;;5053920;28;20029;-76
2021/07/13 08:29:54;;;;;;;1999.90;999.90;;;793.60;1894.40;;;;;;5053528;28;20064;-75
2021/07/13 08:32:19;;;;;;;1999.90;999.90;;;793.70;1920.00;;;;;;5063623;28;20024;-74
2021/07/13 08:34:45;;;;;;;1999.90;999.90;;;793.70;1868.80;;;;;;5070655;28;20024;-74
2021/07/13 08:37:11;;;;;;;1999.90;999.90;;;793.80;1868.80;;;;;;5070554;28;20028;-74
2021/07/13 08:39:37;;;;;;;1999.90;999.90;;;793.90;1868.80;;;;;;5072393;28;20016;-74
2021/07/13 08:42:03;;;;;;;1999.90;999.90;;;794.00;1868.80;;;;;;5072322;28;20020;-76
2021/07/13 08:44:33;;;;;;;1999.90;999.90;;;794.00;1868.80;;;;;;5068737;28;20024;-78
2021/07/13 08:46:59;;;;;;;1999.90;999.90;;;793.90;1868.80;;;;;;5070263;28;20021;-77
2021/07/13 08:49:26;;;;;;;1999.90;999.90;;;794.00;1868.80;;;;;;5069559;28;20036;-76
2021/07/13 08:51:52;;;;;;;1999.90;999.90;;;794.00;1868.80;;;;;;5064095;28;20025;-77
2021/07/13 08:54:18;;;;;;;1999.90;999.90;;;794.10;1843.20;;;;;;5052598;28;20471;-76
2021/07/13 08:56:44;;;;;;;1999.90;999.90;;;794.20;1894.40;;;;;;5054194;28;20036;-76
2021/07/13 08:59:09;;;;;;;1999.90;999.90;;;794.10;1843.20;;;;;;5070246;28;20473;-75
2021/07/13 09:01:35;;;;;;;1999.90;999.90;;;794.20;1868.80;;;;;;5070306;28;20028;-76
2021/07/13 09:04:06;;;;;;;1999.90;999.90;;;794.20;1843.20;;;;;;5068636;28;20012;-74
2021/07/13 09:06:55;;;;;;;1999.90;999.90;;;794.20;1843.20;;;;;;5066807;28;20013;-76
2021/07/13 09:09:23;;;;;;;1999.90;999.90;;;794.20;1868.80;;;;;;5069452;28;20022;-76
2021/07/13 09:12:04;;;;;;;1999.90;999.90;;;794.00;1894.40;;;;;;5066525;28;20525;-74
2021/07/13 09:14:59;;;;;;;1999.90;999.90;;;794.20;1843.20;;;;;;5071981;28;20144;-76
2021/07/13 09:17:35;;;;;;;1999.90;999.90;;;819.30;1843.20;;;;;;5066939;28;20473;-70
2021/07/13 09:20:06;;;;;;;1999.90;999.90;;;819.50;1817.60;;;;;;5067787;28;20060;-69
2021/07/13 09:22:32;;;;;;;1999.90;999.90;;;819.60;1817.60;;;;;;5070458;28;20017;-73
2021/07/13 09:24:58;;;;;;;1999.90;999.90;;;819.80;1817.60;;;;;;5069365;28;20020;-74
2021/07/13 09:27:25;;;;;;;1999.90;999.90;;;820.00;1817.60;;;;;;5071116;28;20021;-69
2021/07/13 09:29:52;;;;;;;1999.90;999.90;;;820.00;1792.00;;;;;;5071235;28;20075;-69
2021/07/13 09:32:23;;;;;;;1999.90;999.90;;;844.80;1817.60;;;;;;5067688;28;20047;-71
2021/07/13 09:34:54;;;;;;;1999.90;999.90;;;845.00;1792.00;;;;;;5069703;28;20032;-71
2021/07/13 09:37:21;;;;;;;;;;;845.00;1792.00;;;;;;5070072;28;20031;-69
2021/07/13 09:40:10;;;;;;;1999.90;999.90;;;845.10;1792.00;;;;;;5071189;28;19912;-71
2021/07/13 09:42:42;;;;;;;1999.90;999.90;;;845.20;1792.00;;;;;;5071615;28;20017;-75
2021/07/13 09:45:31;;;;;;;1999.90;999.90;;;845.10;1766.40;;;;;;5067524;28;20124;-69
2021/07/13 09:47:58;;;;;;;1999.90;999.90;;;845.20;1766.40;;;;;;5074127;28;20021;-70
2021/07/13 09:50:39;;;;;;;1999.90;999.90;;;845.40;1740.80;;;;;;5075351;28;20012;-73
2021/07/13 09:53:07;;;;;;;1999.90;999.90;;;845.30;1740.80;;;;;;5075386;28;20091;-70
2021/07/13 09:55:33;;;;;;;1999.90;999.90;;;845.40;1715.20;;;;;;5073283;28;20026;-70
2021/07/13 09:58:24;;;;;;;1999.90;999.90;;;845.50;1715.20;;;;;;5071373;28;20017;-70
2021/07/13 10:00:53;;;;;;;1999.90;999.90;;;845.60;1715.20;;;;;;5071046;28;20062;-70
2021/07/13 10:03:20;;;;;;;1999.90;999.90;;;845.70;1715.20;;;;;;5071856;28;20070;-75
2021/07/13 10:05:49;;;;;;;1999.90;999.90;;;845.60;1715.20;;;;;;5074946;28;20020;-69
2021/07/13 10:08:15;;;;;;;1999.90;999.90;;;845.70;1715.20;;;;;;5074930;28;20444;-70
2021/07/13 10:10:43;;;;;;;1999.90;999.90;;;845.70;1715.20;;;;;;5075787;28;20024;-80
2021/07/13 10:13:14;;;;;;;1999.90;999.90;;;845.70;1715.20;;;;;;5070721;28;20036;-70
2021/07/13 10:15:41;;;;;;;1999.90;999.90;;;845.70;1689.60;;;;;;5069358;28;20496;-70
2021/07/13 10:18:08;;;;;;;1999.90;999.90;;;870.40;1664.00;;;;;;5072767;28;20408;-69
2021/07/13 10:20:36;;;;;;;1999.90;999.90;;;870.40;1689.60;;;;;;5073977;28;20020;-70
2021/07/13 10:23:06;;;;;;;1999.90;999.90;;;870.50;1715.20;;;;;;5074694;28;20012;-70
2021/07/13 10:25:35;;;;;;;;;;;870.50;1664.00;;;;;;5069597;28;20060;-70
2021/07/13 10:28:01;;;;;;;1999.90;999.90;;;870.50;1664.00;;;;;;5061862;28;19908;-70
2021/07/13 10:30:27;;;;;;;1999.90;999.90;;;870.50;1689.60;;;;;;5056644;28;20280;-71
2021/07/13 10:32:53;;;;;;;1999.90;999.90;;;870.60;1638.40;;;;;;5062244;28;20037;-71
2021/07/13 10:35:24;;;;;;;1999.90;999.90;;;870.70;1664.00;;;;;;5058944;28;20426;-70
2021/07/13 10:38:14;;;;;;;1999.90;999.90;;;870.80;1612.80;;;;;;5055425;28;20029;-70
2021/07/13 10:40:41;;;;;;;1999.90;999.90;;;870.90;1638.40;;;;;;5055300;28;20033;-71
2021/07/13 10:43:19;;;;;;;1999.90;999.90;;;870.90;1612.80;;;;;;5055885;28;20024;-75
2021/07/13 10:45:47;;;;;;;1999.90;999.90;;;871.00;1612.80;;;;;;5065377;28;20029;-76
2021/07/13 10:48:13;;;;;;;1999.90;999.90;;;871.10;1536.00;;;;;;5074173;28;20017;-69
2021/07/13 10:50:41;;;;;;;1999.90;999.90;;;870.90;1536.00;;;;;;5074350;28;20031;-73
2021/07/13 10:53:13;;;;;;;1999.90;999.90;;;870.90;1536.00;;;;;;5072138;28;20056;-70
2021/07/13 10:55:44;;;;;;;1999.90;999.90;;;870.90;1561.60;;;;;;5072593;28;20388;-73
2021/07/13 10:58:14;;;;;;;1999.90;999.90;;;871.00;1536.00;;;;;;5071846;28;20031;-68
2021/07/13 11:00:51;;;;;;;1999.90;999.90;;;871.10;1510.40;;;;;;5073528;28;20074;-71
2021/07/13 11:03:29;;;;;;;1999.90;999.90;;;871.10;1536.00;;;;;;5072745;28;20539;-81
2021/07/13 11:05:56;;;;;;;1999.90;999.90;;;871.10;1561.60;;;;;;5073932;28;20017;-69
2021/07/13 11:11:28;;;;;;;1999.90;999.90;;;871.00;1561.60;;;;;;5071795;28;20150;-69
2021/07/13 11:13:57;;;;;;;1999.90;999.90;;;871.10;1510.40;;;;;;5067451;28;20043;-69
2021/07/13 11:16:26;;;;;;;1999.90;999.90;;;871.10;1510.40;;;;;;5071458;28;20016;-70
2021/07/13 11:18:53;;;;;;;1999.90;999.90;;;871.10;1484.80;;;;;;5072769;28;20389;-69
2021/07/13 11:21:24;;;;;;;1999.90;999.90;;;871.20;1459.20;;;;;;5073110;28;20462;-71
2021/07/13 11:24:07;;;;;;;1999.90;999.90;;;871.30;1433.60;;;;;;5073158;28;20023;-70
2021/07/13 11:26:38;;;;;;;1999.90;999.90;;;871.30;1484.80;;;;;;5073256;28;20016;-71
2021/07/13 11:29:25;;;;;;;1999.90;999.90;;;896.00;1484.80;;;;;;5070398;28;20045;-70
2021/07/13 11:31:58;;;;;;;1999.90;999.90;;;896.00;1484.80;;;;;;5063454;28;20032;-69
2021/07/13 11:34:26;;;;;;;1999.90;999.90;;;896.10;1459.20;;;;;;5058597;28;20029;-69
2021/07/13 11:36:55;;;;;;;1999.90;999.90;;;896.00;1459.20;;;;;;5058325;28;20116;-70
2021/07/13 11:39:30;;;;;;;1999.90;999.90;;;896.10;1459.20;;;;;;5058784;28;20025;-70
2021/07/13 11:41:58;;;;;;;1999.90;999.90;;;896.20;1408.00;;;;;;5057188;28;20723;-71
2021/07/13 11:44:24;;;;;;;1999.90;999.90;;;896.30;1408.00;;;;;;5057188;28;20025;-72